sensor_id;sensor_type;location;lat;lon;timestamp;P1;durP1;ratioP1;P2;durP2;ratioP2
29908;SDS011;36247;51.952;6.146;2023-04-15T00:00:42;11.23;;;8.32;;
29908;SDS011;36247;51.952;6.146;2023-04-15T00:03:11;13.00;;;8.48;;
29908;SDS011;36247;51.952;6.146;2023-04-15T00:05:43;13.68;;;9.00;;
29908;SDS011;36247;51.952;6.146;2023-04-15T00:08:33;19.30;;;9.63;;
29908;SDS011;36247;51.952;6.146;2023-04-15T00:11:10;10.40;;;8.10;;
29908;SDS011;36247;51.952;6.146;2023-04-15T00:13:37;16.60;;;9.27;;
29908;SDS011;36247;51.952;6.146;2023-04-15T00:16:04;15.07;;;8.70;;
29908;SDS011;36247;51.952;6.146;2023-04-15T00:18:37;13.80;;;8.00;;
29908;SDS011;36247;51.952;6.146;2023-04-15T00:21:05;10.68;;;7.60;;
29908;SDS011;36247;51.952;6.146;2023-04-15T00:23:31;12.20;;;8.02;;
29908;SDS011;36247;51.952;6.146;2023-04-15T00:26:01;15.60;;;8.48;;
29908;SDS011;36247;51.952;6.146;2023-04-15T00:28:35;13.98;;;9.05;;
29908;SDS011;36247;51.952;6.146;2023-04-15T00:31:04;12.20;;;8.43;;
29908;SDS011;36247;51.952;6.146;2023-04-15T00:33:31;13.48;;;8.55;;
29908;SDS011;36247;51.952;6.146;2023-04-15T00:36:01;13.80;;;9.20;;
29908;SDS011;36247;51.952;6.146;2023-04-15T00:38:28;13.40;;;8.20;;
29908;SDS011;36247;51.952;6.146;2023-04-15T00:40:58;12.25;;;8.40;;
29908;SDS011;36247;51.952;6.146;2023-04-15T00:43:24;15.25;;;8.20;;
29908;SDS011;36247;51.952;6.146;2023-04-15T00:45:51;13.77;;;9.02;;
29908;SDS011;36247;51.952;6.146;2023-04-15T00:48:19;12.57;;;8.80;;
29908;SDS011;36247;51.952;6.146;2023-04-15T00:50:48;14.85;;;9.32;;
29908;SDS011;36247;51.952;6.146;2023-04-15T00:53:17;11.93;;;9.05;;
29908;SDS011;36247;51.952;6.146;2023-04-15T00:55:46;17.15;;;9.60;;
29908;SDS011;36247;51.952;6.146;2023-04-15T00:58:17;15.18;;;10.02;;
29908;SDS011;36247;51.952;6.146;2023-04-15T01:00:45;10.98;;;8.55;;
29908;SDS011;36247;51.952;6.146;2023-04-15T01:03:15;15.18;;;9.50;;
29908;SDS011;36247;51.952;6.146;2023-04-15T01:05:45;14.77;;;9.75;;
29908;SDS011;36247;51.952;6.146;2023-04-15T01:08:13;15.10;;;8.32;;
29908;SDS011;36247;51.952;6.146;2023-04-15T01:10:41;13.48;;;8.50;;
29908;SDS011;36247;51.952;6.146;2023-04-15T01:13:11;12.05;;;9.48;;
29908;SDS011;36247;51.952;6.146;2023-04-15T01:15:44;12.70;;;8.98;;
29908;SDS011;36247;51.952;6.146;2023-04-15T01:18:29;15.88;;;9.45;;
29908;SDS011;36247;51.952;6.146;2023-04-15T01:21:07;15.02;;;8.85;;
29908;SDS011;36247;51.952;6.146;2023-04-15T01:23:49;9.63;;;8.60;;
29908;SDS011;36247;51.952;6.146;2023-04-15T01:26:21;10.45;;;8.30;;
29908;SDS011;36247;51.952;6.146;2023-04-15T01:28:49;13.18;;;9.18;;
29908;SDS011;36247;51.952;6.146;2023-04-15T01:31:20;13.38;;;9.02;;
29908;SDS011;36247;51.952;6.146;2023-04-15T01:33:47;13.07;;;8.70;;
29908;SDS011;36247;51.952;6.146;2023-04-15T01:36:14;15.00;;;8.68;;
29908;SDS011;36247;51.952;6.146;2023-04-15T01:38:42;16.33;;;10.02;;
29908;SDS011;36247;51.952;6.146;2023-04-15T01:41:25;14.20;;;9.75;;
29908;SDS011;36247;51.952;6.146;2023-04-15T01:43:57;14.07;;;9.40;;
29908;SDS011;36247;51.952;6.146;2023-04-15T01:46:26;13.15;;;8.77;;
29908;SDS011;36247;51.952;6.146;2023-04-15T01:48:52;12.52;;;8.75;;
29908;SDS011;36247;51.952;6.146;2023-04-15T01:51:19;13.65;;;9.10;;
29908;SDS011;36247;51.952;6.146;2023-04-15T01:53:48;11.57;;;8.70;;
29908;SDS011;36247;51.952;6.146;2023-04-15T01:56:15;16.67;;;9.30;;
29908;SDS011;36247;51.952;6.146;2023-04-15T01:58:43;10.18;;;8.63;;
29908;SDS011;36247;51.952;6.146;2023-04-15T02:01:19;12.30;;;7.70;;
29908;SDS011;36247;51.952;6.146;2023-04-15T02:03:46;11.05;;;8.02;;
29908;SDS011;36247;51.952;6.146;2023-04-15T02:06:16;12.45;;;7.50;;
29908;SDS011;36247;51.952;6.146;2023-04-15T02:08:43;13.65;;;8.55;;
29908;SDS011;36247;51.952;6.146;2023-04-15T02:11:12;16.52;;;9.20;;
29908;SDS011;36247;51.952;6.146;2023-04-15T02:13:38;16.35;;;8.68;;
29908;SDS011;36247;51.952;6.146;2023-04-15T02:16:18;9.73;;;8.02;;
29908;SDS011;36247;51.952;6.146;2023-04-15T02:18:46;11.35;;;7.75;;
29908;SDS011;36247;51.952;6.146;2023-04-15T02:21:12;13.52;;;8.55;;
29908;SDS011;36247;51.952;6.146;2023-04-15T02:23:41;13.40;;;8.82;;
29908;SDS011;36247;51.952;6.146;2023-04-15T02:26:11;15.65;;;9.88;;
29908;SDS011;36247;51.952;6.146;2023-04-15T02:28:45;12.43;;;9.30;;
29908;SDS011;36247;51.952;6.146;2023-04-15T02:31:15;13.60;;;8.50;;
29908;SDS011;36247;51.952;6.146;2023-04-15T02:33:52;13.73;;;8.68;;
29908;SDS011;36247;51.952;6.146;2023-04-15T02:36:22;12.20;;;8.52;;
29908;SDS011;36247;51.952;6.146;2023-04-15T02:38:52;15.90;;;9.02;;
29908;SDS011;36247;51.952;6.146;2023-04-15T02:41:18;15.02;;;8.82;;
29908;SDS011;36247;51.952;6.146;2023-04-15T02:43:47;11.52;;;8.70;;
29908;SDS011;36247;51.952;6.146;2023-04-15T02:46:21;12.48;;;8.02;;
29908;SDS011;36247;51.952;6.146;2023-04-15T02:48:48;12.43;;;8.82;;
29908;SDS011;36247;51.952;6.146;2023-04-15T02:51:16;14.90;;;9.48;;
29908;SDS011;36247;51.952;6.146;2023-04-15T02:53:47;16.27;;;8.65;;
29908;SDS011;36247;51.952;6.146;2023-04-15T02:56:18;14.45;;;8.93;;
29908;SDS011;36247;51.952;6.146;2023-04-15T02:58:44;15.75;;;9.13;;
29908;SDS011;36247;51.952;6.146;2023-04-15T03:01:10;11.88;;;8.77;;
29908;SDS011;36247;51.952;6.146;2023-04-15T03:03:40;14.27;;;8.60;;
29908;SDS011;36247;51.952;6.146;2023-04-15T03:06:10;13.10;;;9.10;;
29908;SDS011;36247;51.952;6.146;2023-04-15T03:08:40;15.13;;;9.82;;
29908;SDS011;36247;51.952;6.146;2023-04-15T03:11:10;15.77;;;8.98;;
29908;SDS011;36247;51.952;6.146;2023-04-15T03:13:40;16.15;;;9.05;;
29908;SDS011;36247;51.952;6.146;2023-04-15T03:16:22;14.02;;;9.38;;
29908;SDS011;36247;51.952;6.146;2023-04-15T03:18:53;15.93;;;9.85;;
29908;SDS011;36247;51.952;6.146;2023-04-15T03:21:22;16.13;;;9.18;;
29908;SDS011;36247;51.952;6.146;2023-04-15T03:23:49;17.17;;;9.50;;
29908;SDS011;36247;51.952;6.146;2023-04-15T03:26:26;12.77;;;9.40;;
29908;SDS011;36247;51.952;6.146;2023-04-15T03:29:10;15.68;;;9.18;;
29908;SDS011;36247;51.952;6.146;2023-04-15T03:31:41;15.73;;;9.30;;
29908;SDS011;36247;51.952;6.146;2023-04-15T03:34:09;14.55;;;9.70;;
29908;SDS011;36247;51.952;6.146;2023-04-15T03:36:37;13.15;;;9.30;;
29908;SDS011;36247;51.952;6.146;2023-04-15T03:39:11;11.35;;;9.05;;
29908;SDS011;36247;51.952;6.146;2023-04-15T03:41:46;13.32;;;9.48;;
29908;SDS011;36247;51.952;6.146;2023-04-15T03:44:51;12.65;;;9.43;;
29908;SDS011;36247;51.952;6.146;2023-04-15T03:47:23;13.10;;;9.77;;
29908;SDS011;36247;51.952;6.146;2023-04-15T03:49:50;15.68;;;9.80;;
29908;SDS011;36247;51.952;6.146;2023-04-15T03:52:31;15.98;;;10.25;;
29908;SDS011;36247;51.952;6.146;2023-04-15T03:55:02;17.10;;;10.63;;
29908;SDS011;36247;51.952;6.146;2023-04-15T03:57:47;15.52;;;10.75;;
29908;SDS011;36247;51.952;6.146;2023-04-15T04:00:19;19.52;;;10.40;;
29908;SDS011;36247;51.952;6.146;2023-04-15T04:03:12;16.50;;;10.18;;
29908;SDS011;36247;51.952;6.146;2023-04-15T04:06:43;21.20;;;10.93;;
29908;SDS011;36247;51.952;6.146;2023-04-15T04:09:23;16.40;;;9.85;;
29908;SDS011;36247;51.952;6.146;2023-04-15T04:11:50;11.93;;;9.43;;
29908;SDS011;36247;51.952;6.146;2023-04-15T04:14:18;16.52;;;9.85;;
29908;SDS011;36247;51.952;6.146;2023-04-15T04:16:44;17.38;;;9.50;;
29908;SDS011;36247;51.952;6.146;2023-04-15T04:19:11;15.00;;;9.57;;
29908;SDS011;36247;51.952;6.146;2023-04-15T04:21:50;18.27;;;10.27;;
29908;SDS011;36247;51.952;6.146;2023-04-15T04:24:36;18.13;;;11.27;;
29908;SDS011;36247;51.952;6.146;2023-04-15T04:27:09;14.25;;;10.45;;
29908;SDS011;36247;51.952;6.146;2023-04-15T04:29:37;20.50;;;10.27;;
29908;SDS011;36247;51.952;6.146;2023-04-15T04:32:06;14.73;;;10.32;;
29908;SDS011;36247;51.952;6.146;2023-04-15T04:34:42;15.32;;;10.60;;
29908;SDS011;36247;51.952;6.146;2023-04-15T04:37:14;15.82;;;10.43;;
29908;SDS011;36247;51.952;6.146;2023-04-15T04:39:41;19.27;;;11.13;;
29908;SDS011;36247;51.952;6.146;2023-04-15T04:42:09;18.27;;;10.73;;
29908;SDS011;36247;51.952;6.146;2023-04-15T04:44:54;16.42;;;10.77;;
29908;SDS011;36247;51.952;6.146;2023-04-15T04:47:22;17.10;;;11.85;;
29908;SDS011;36247;51.952;6.146;2023-04-15T04:50:05;15.63;;;10.20;;
29908;SDS011;36247;51.952;6.146;2023-04-15T04:52:38;15.10;;;11.05;;
29908;SDS011;36247;51.952;6.146;2023-04-15T04:55:19;19.20;;;10.90;;
29908;SDS011;36247;51.952;6.146;2023-04-15T04:57:51;17.65;;;11.02;;
29908;SDS011;36247;51.952;6.146;2023-04-15T05:00:29;15.63;;;11.25;;
29908;SDS011;36247;51.952;6.146;2023-04-15T05:02:55;21.52;;;11.02;;
29908;SDS011;36247;51.952;6.146;2023-04-15T05:05:21;20.55;;;11.20;;
29908;SDS011;36247;51.952;6.146;2023-04-15T05:07:50;17.92;;;11.77;;
29908;SDS011;36247;51.952;6.146;2023-04-15T05:10:18;16.00;;;10.45;;
29908;SDS011;36247;51.952;6.146;2023-04-15T05:12:46;17.35;;;11.88;;
29908;SDS011;36247;51.952;6.146;2023-04-15T05:15:14;16.48;;;11.75;;
29908;SDS011;36247;51.952;6.146;2023-04-15T05:17:40;14.75;;;11.13;;
29908;SDS011;36247;51.952;6.146;2023-04-15T05:20:06;15.80;;;11.80;;
29908;SDS011;36247;51.952;6.146;2023-04-15T05:22:34;19.33;;;12.68;;
29908;SDS011;36247;51.952;6.146;2023-04-15T05:25:00;21.17;;;11.27;;
29908;SDS011;36247;51.952;6.146;2023-04-15T05:27:26;19.63;;;12.68;;
29908;SDS011;36247;51.952;6.146;2023-04-15T05:29:53;20.17;;;11.93;;
29908;SDS011;36247;51.952;6.146;2023-04-15T05:32:28;16.92;;;12.55;;
29908;SDS011;36247;51.952;6.146;2023-04-15T05:35:03;28.90;;;13.30;;
29908;SDS011;36247;51.952;6.146;2023-04-15T05:37:34;20.60;;;12.90;;
29908;SDS011;36247;51.952;6.146;2023-04-15T05:40:01;20.65;;;13.40;;
29908;SDS011;36247;51.952;6.146;2023-04-15T05:42:28;20.25;;;13.18;;
29908;SDS011;36247;51.952;6.146;2023-04-15T05:44:59;21.85;;;13.98;;
29908;SDS011;36247;51.952;6.146;2023-04-15T05:47:35;25.60;;;12.93;;
29908;SDS011;36247;51.952;6.146;2023-04-15T05:52:35;19.38;;;12.75;;
29908;SDS011;36247;51.952;6.146;2023-04-15T05:55:01;23.80;;;14.38;;
29908;SDS011;36247;51.952;6.146;2023-04-15T05:57:30;23.75;;;13.77;;
29908;SDS011;36247;51.952;6.146;2023-04-15T06:00:05;24.58;;;13.32;;
29908;SDS011;36247;51.952;6.146;2023-04-15T06:02:40;19.17;;;13.05;;
29908;SDS011;36247;51.952;6.146;2023-04-15T06:05:10;17.92;;;12.55;;
29908;SDS011;36247;51.952;6.146;2023-04-15T06:07:37;18.23;;;13.00;;
29908;SDS011;36247;51.952;6.146;2023-04-15T06:10:04;17.65;;;12.50;;
29908;SDS011;36247;51.952;6.146;2023-04-15T06:12:32;22.02;;;12.95;;
29908;SDS011;36247;51.952;6.146;2023-04-15T06:14:58;19.88;;;12.48;;
29908;SDS011;36247;51.952;6.146;2023-04-15T06:17:24;20.02;;;13.43;;
29908;SDS011;36247;51.952;6.146;2023-04-15T06:19:53;19.05;;;12.85;;
29908;SDS011;36247;51.952;6.146;2023-04-15T06:22:21;20.27;;;12.98;;
29908;SDS011;36247;51.952;6.146;2023-04-15T06:24:47;22.30;;;13.73;;
29908;SDS011;36247;51.952;6.146;2023-04-15T06:27:15;19.20;;;12.52;;
29908;SDS011;36247;51.952;6.146;2023-04-15T06:29:40;19.70;;;12.80;;
29908;SDS011;36247;51.952;6.146;2023-04-15T06:32:07;18.42;;;11.95;;
29908;SDS011;36247;51.952;6.146;2023-04-15T06:34:40;18.60;;;12.20;;
29908;SDS011;36247;51.952;6.146;2023-04-15T06:37:09;19.42;;;12.68;;
29908;SDS011;36247;51.952;6.146;2023-04-15T06:39:40;18.48;;;12.75;;
29908;SDS011;36247;51.952;6.146;2023-04-15T06:42:09;17.65;;;12.40;;
29908;SDS011;36247;51.952;6.146;2023-04-15T06:44:44;19.73;;;13.18;;
29908;SDS011;36247;51.952;6.146;2023-04-15T06:47:13;21.85;;;13.45;;
29908;SDS011;36247;51.952;6.146;2023-04-15T06:49:49;18.85;;;13.68;;
29908;SDS011;36247;51.952;6.146;2023-04-15T06:54:46;21.60;;;12.98;;
29908;SDS011;36247;51.952;6.146;2023-04-15T06:57:26;19.75;;;13.00;;
29908;SDS011;36247;51.952;6.146;2023-04-15T07:00:08;21.15;;;13.70;;
29908;SDS011;36247;51.952;6.146;2023-04-15T07:02:36;19.55;;;13.27;;
29908;SDS011;36247;51.952;6.146;2023-04-15T07:05:14;18.85;;;12.93;;
29908;SDS011;36247;51.952;6.146;2023-04-15T07:07:48;21.30;;;14.15;;
29908;SDS011;36247;51.952;6.146;2023-04-15T07:10:16;20.52;;;13.50;;
29908;SDS011;36247;51.952;6.146;2023-04-15T07:15:16;20.58;;;14.55;;
29908;SDS011;36247;51.952;6.146;2023-04-15T07:17:43;21.45;;;14.02;;
29908;SDS011;36247;51.952;6.146;2023-04-15T07:20:10;21.65;;;13.20;;
29908;SDS011;36247;51.952;6.146;2023-04-15T07:22:41;21.55;;;14.98;;
29908;SDS011;36247;51.952;6.146;2023-04-15T07:25:12;19.27;;;13.52;;
29908;SDS011;36247;51.952;6.146;2023-04-15T07:27:38;20.05;;;14.25;;
29908;SDS011;36247;51.952;6.146;2023-04-15T07:30:05;19.27;;;13.90;;
29908;SDS011;36247;51.952;6.146;2023-04-15T07:32:31;20.17;;;14.00;;
29908;SDS011;36247;51.952;6.146;2023-04-15T07:34:58;18.90;;;14.02;;
29908;SDS011;36247;51.952;6.146;2023-04-15T07:37:32;20.52;;;13.80;;
29908;SDS011;36247;51.952;6.146;2023-04-15T07:40:05;22.50;;;13.93;;
29908;SDS011;36247;51.952;6.146;2023-04-15T07:42:37;22.73;;;14.77;;
29908;SDS011;36247;51.952;6.146;2023-04-15T07:45:06;22.13;;;13.13;;
29908;SDS011;36247;51.952;6.146;2023-04-15T07:47:41;20.20;;;14.02;;
29908;SDS011;36247;51.952;6.146;2023-04-15T07:50:11;18.65;;;13.73;;
29908;SDS011;36247;51.952;6.146;2023-04-15T07:52:39;17.13;;;12.20;;
29908;SDS011;36247;51.952;6.146;2023-04-15T07:55:07;16.38;;;12.50;;
29908;SDS011;36247;51.952;6.146;2023-04-15T07:57:42;15.65;;;12.23;;
29908;SDS011;36247;51.952;6.146;2023-04-15T08:00:12;15.05;;;11.73;;
29908;SDS011;36247;51.952;6.146;2023-04-15T08:02:42;18.33;;;12.80;;
29908;SDS011;36247;51.952;6.146;2023-04-15T08:05:16;18.63;;;11.85;;
29908;SDS011;36247;51.952;6.146;2023-04-15T08:07:46;19.83;;;12.90;;
29908;SDS011;36247;51.952;6.146;2023-04-15T08:10:17;15.27;;;11.13;;
29908;SDS011;36247;51.952;6.146;2023-04-15T08:12:43;15.98;;;11.40;;
29908;SDS011;36247;51.952;6.146;2023-04-15T08:15:19;18.73;;;11.73;;
29908;SDS011;36247;51.952;6.146;2023-04-15T08:17:46;14.45;;;10.98;;
29908;SDS011;36247;51.952;6.146;2023-04-15T08:20:14;14.02;;;10.80;;
29908;SDS011;36247;51.952;6.146;2023-04-15T08:22:40;14.23;;;10.13;;
29908;SDS011;36247;51.952;6.146;2023-04-15T08:25:08;13.70;;;10.57;;
29908;SDS011;36247;51.952;6.146;2023-04-15T08:27:36;12.80;;;9.82;;
29908;SDS011;36247;51.952;6.146;2023-04-15T08:30:05;14.85;;;10.10;;
29908;SDS011;36247;51.952;6.146;2023-04-15T08:32:36;17.25;;;10.68;;
29908;SDS011;36247;51.952;6.146;2023-04-15T08:35:02;12.88;;;10.15;;
29908;SDS011;36247;51.952;6.146;2023-04-15T08:37:28;14.38;;;9.52;;
29908;SDS011;36247;51.952;6.146;2023-04-15T08:39:55;12.13;;;9.25;;
29908;SDS011;36247;51.952;6.146;2023-04-15T08:42:26;12.23;;;8.95;;
29908;SDS011;36247;51.952;6.146;2023-04-15T08:44:58;12.23;;;9.15;;
29908;SDS011;36247;51.952;6.146;2023-04-15T08:47:28;12.82;;;8.77;;
29908;SDS011;36247;51.952;6.146;2023-04-15T08:49:56;14.45;;;9.45;;
29908;SDS011;36247;51.952;6.146;2023-04-15T08:52:25;11.25;;;9.15;;
29908;SDS011;36247;51.952;6.146;2023-04-15T08:54:52;12.73;;;9.77;;
29908;SDS011;36247;51.952;6.146;2023-04-15T08:57:27;14.00;;;8.57;;
29908;SDS011;36247;51.952;6.146;2023-04-15T08:59:56;15.25;;;9.27;;
29908;SDS011;36247;51.952;6.146;2023-04-15T09:02:23;11.13;;;8.15;;
29908;SDS011;36247;51.952;6.146;2023-04-15T09:04:50;11.98;;;7.65;;
29908;SDS011;36247;51.952;6.146;2023-04-15T09:07:27;8.77;;;6.78;;
29908;SDS011;36247;51.952;6.146;2023-04-15T09:09:54;11.05;;;7.40;;
29908;SDS011;36247;51.952;6.146;2023-04-15T09:12:20;9.27;;;6.53;;
29908;SDS011;36247;51.952;6.146;2023-04-15T09:14:46;10.25;;;7.47;;
29908;SDS011;36247;51.952;6.146;2023-04-15T09:17:18;10.07;;;7.13;;
29908;SDS011;36247;51.952;6.146;2023-04-15T09:19:46;9.70;;;6.72;;
29908;SDS011;36247;51.952;6.146;2023-04-15T09:22:13;8.80;;;6.82;;
29908;SDS011;36247;51.952;6.146;2023-04-15T09:24:39;9.32;;;6.85;;
29908;SDS011;36247;51.952;6.146;2023-04-15T09:27:08;8.85;;;6.97;;
29908;SDS011;36247;51.952;6.146;2023-04-15T09:29:34;10.95;;;7.57;;
29908;SDS011;36247;51.952;6.146;2023-04-15T09:32:09;10.23;;;6.47;;
29908;SDS011;36247;51.952;6.146;2023-04-15T09:34:38;8.38;;;6.10;;
29908;SDS011;36247;51.952;6.146;2023-04-15T09:37:06;8.38;;;6.53;;
29908;SDS011;36247;51.952;6.146;2023-04-15T09:44:49;9.80;;;6.18;;
29908;SDS011;36247;51.952;6.146;2023-04-15T09:47:29;7.68;;;6.20;;
29908;SDS011;36247;51.952;6.146;2023-04-15T09:49:59;7.13;;;5.82;;
29908;SDS011;36247;51.952;6.146;2023-04-15T09:52:28;8.40;;;6.90;;
29908;SDS011;36247;51.952;6.146;2023-04-15T09:54:57;7.57;;;6.32;;
29908;SDS011;36247;51.952;6.146;2023-04-15T09:57:34;10.32;;;7.00;;
29908;SDS011;36247;51.952;6.146;2023-04-15T10:00:02;8.43;;;6.13;;
29908;SDS011;36247;51.952;6.146;2023-04-15T10:02:37;7.90;;;5.80;;
29908;SDS011;36247;51.952;6.146;2023-04-15T10:05:10;10.73;;;6.63;;
29908;SDS011;36247;51.952;6.146;2023-04-15T10:07:44;7.70;;;5.97;;
29908;SDS011;36247;51.952;6.146;2023-04-15T10:10:11;11.43;;;6.57;;
29908;SDS011;36247;51.952;6.146;2023-04-15T10:12:43;9.05;;;6.05;;
29908;SDS011;36247;51.952;6.146;2023-04-15T10:15:13;8.20;;;6.00;;
29908;SDS011;36247;51.952;6.146;2023-04-15T10:17:44;7.53;;;5.05;;
29908;SDS011;36247;51.952;6.146;2023-04-15T10:20:19;8.30;;;5.63;;
29908;SDS011;36247;51.952;6.146;2023-04-15T10:22:46;8.27;;;5.57;;
29908;SDS011;36247;51.952;6.146;2023-04-15T10:25:14;8.20;;;4.97;;
29908;SDS011;36247;51.952;6.146;2023-04-15T10:27:42;6.40;;;4.90;;
29908;SDS011;36247;51.952;6.146;2023-04-15T10:30:09;8.73;;;5.78;;
29908;SDS011;36247;51.952;6.146;2023-04-15T10:32:36;10.13;;;6.00;;
29908;SDS011;36247;51.952;6.146;2023-04-15T10:35:04;10.25;;;6.38;;
29908;SDS011;36247;51.952;6.146;2023-04-15T10:37:35;8.07;;;6.22;;
29908;SDS011;36247;51.952;6.146;2023-04-15T10:42:56;8.10;;;6.28;;
29908;SDS011;36247;51.952;6.146;2023-04-15T10:45:24;10.02;;;6.25;;
29908;SDS011;36247;51.952;6.146;2023-04-15T10:48:02;10.32;;;6.43;;
29908;SDS011;36247;51.952;6.146;2023-04-15T10:50:34;9.35;;;5.75;;
29908;SDS011;36247;51.952;6.146;2023-04-15T10:53:04;8.00;;;5.07;;
29908;SDS011;36247;51.952;6.146;2023-04-15T10:55:34;7.10;;;5.60;;
29908;SDS011;36247;51.952;6.146;2023-04-15T10:58:04;6.50;;;4.82;;
29908;SDS011;36247;51.952;6.146;2023-04-15T11:00:32;7.93;;;5.65;;
29908;SDS011;36247;51.952;6.146;2023-04-15T11:03:06;5.82;;;4.88;;
29908;SDS011;36247;51.952;6.146;2023-04-15T11:08:19;7.80;;;4.72;;
29908;SDS011;36247;51.952;6.146;2023-04-15T11:13:15;7.47;;;5.28;;
29908;SDS011;36247;51.952;6.146;2023-04-15T11:15:51;6.15;;;4.88;;
29908;SDS011;36247;51.952;6.146;2023-04-15T11:18:24;8.23;;;5.78;;
29908;SDS011;36247;51.952;6.146;2023-04-15T11:20:54;9.20;;;5.25;;
29908;SDS011;36247;51.952;6.146;2023-04-15T11:26:01;5.50;;;4.82;;
29908;SDS011;36247;51.952;6.146;2023-04-15T11:28:34;5.63;;;5.03;;
29908;SDS011;36247;51.952;6.146;2023-04-15T11:31:18;8.23;;;4.70;;
29908;SDS011;36247;51.952;6.146;2023-04-15T11:33:54;6.18;;;3.90;;
29908;SDS011;36247;51.952;6.146;2023-04-15T11:36:22;6.45;;;3.92;;
29908;SDS011;36247;51.952;6.146;2023-04-15T11:38:53;7.15;;;3.85;;
29908;SDS011;36247;51.952;6.146;2023-04-15T11:41:20;4.88;;;3.80;;
29908;SDS011;36247;51.952;6.146;2023-04-15T11:43:50;4.45;;;3.63;;
29908;SDS011;36247;51.952;6.146;2023-04-15T11:46:16;12.68;;;4.15;;
29908;SDS011;36247;51.952;6.146;2023-04-15T11:48:43;7.22;;;3.78;;
29908;SDS011;36247;51.952;6.146;2023-04-15T11:51:12;4.40;;;4.00;;
29908;SDS011;36247;51.952;6.146;2023-04-15T11:53:46;6.50;;;3.78;;
29908;SDS011;36247;51.952;6.146;2023-04-15T11:56:17;4.97;;;4.03;;
29908;SDS011;36247;51.952;6.146;2023-04-15T11:58:57;5.53;;;3.35;;
29908;SDS011;36247;51.952;6.146;2023-04-15T12:01:31;4.32;;;3.28;;
29908;SDS011;36247;51.952;6.146;2023-04-15T12:04:15;5.78;;;3.83;;
29908;SDS011;36247;51.952;6.146;2023-04-15T12:06:47;5.20;;;3.15;;
29908;SDS011;36247;51.952;6.146;2023-04-15T12:09:15;5.63;;;3.25;;
29908;SDS011;36247;51.952;6.146;2023-04-15T12:11:48;4.40;;;3.28;;
29908;SDS011;36247;51.952;6.146;2023-04-15T12:14:29;5.28;;;3.40;;
29908;SDS011;36247;51.952;6.146;2023-04-15T12:17:09;6.80;;;3.28;;
29908;SDS011;36247;51.952;6.146;2023-04-15T12:19:39;3.92;;;2.70;;
29908;SDS011;36247;51.952;6.146;2023-04-15T12:22:09;4.97;;;2.83;;
29908;SDS011;36247;51.952;6.146;2023-04-15T12:24:40;4.63;;;2.45;;
29908;SDS011;36247;51.952;6.146;2023-04-15T12:27:18;3.85;;;2.80;;
29908;SDS011;36247;51.952;6.146;2023-04-15T12:29:45;7.38;;;2.80;;
29908;SDS011;36247;51.952;6.146;2023-04-15T12:32:15;4.88;;;3.17;;
29908;SDS011;36247;51.952;6.146;2023-04-15T12:34:56;4.55;;;3.22;;
29908;SDS011;36247;51.952;6.146;2023-04-15T12:37:22;7.95;;;3.15;;
29908;SDS011;36247;51.952;6.146;2023-04-15T12:39:51;3.72;;;3.10;;
29908;SDS011;36247;51.952;6.146;2023-04-15T12:42:19;5.00;;;2.60;;
29908;SDS011;36247;51.952;6.146;2023-04-15T12:44:48;4.18;;;2.55;;
29908;SDS011;36247;51.952;6.146;2023-04-15T12:47:17;7.25;;;2.65;;
29908;SDS011;36247;51.952;6.146;2023-04-15T12:49:43;4.53;;;2.47;;
29908;SDS011;36247;51.952;6.146;2023-04-15T12:52:10;7.88;;;3.38;;
29908;SDS011;36247;51.952;6.146;2023-04-15T12:54:39;5.60;;;2.80;;
29908;SDS011;36247;51.952;6.146;2023-04-15T12:57:06;3.33;;;2.50;;
29908;SDS011;36247;51.952;6.146;2023-04-15T12:59:35;4.80;;;2.38;;
29908;SDS011;36247;51.952;6.146;2023-04-15T13:02:02;4.68;;;2.42;;
29908;SDS011;36247;51.952;6.146;2023-04-15T13:04:28;3.55;;;2.70;;
29908;SDS011;36247;51.952;6.146;2023-04-15T13:07:01;5.82;;;2.45;;
29908;SDS011;36247;51.952;6.146;2023-04-15T13:09:28;4.65;;;2.50;;
29908;SDS011;36247;51.952;6.146;2023-04-15T13:11:54;5.93;;;2.85;;
29908;SDS011;36247;51.952;6.146;2023-04-15T13:14:23;7.78;;;2.25;;
29908;SDS011;36247;51.952;6.146;2023-04-15T13:16:53;2.45;;;2.25;;
29908;SDS011;36247;51.952;6.146;2023-04-15T13:19:19;3.90;;;1.90;;
29908;SDS011;36247;51.952;6.146;2023-04-15T13:21:45;5.10;;;2.17;;
29908;SDS011;36247;51.952;6.146;2023-04-15T13:24:15;1.73;;;1.60;;
29908;SDS011;36247;51.952;6.146;2023-04-15T13:26:44;2.38;;;1.88;;
29908;SDS011;36247;51.952;6.146;2023-04-15T13:29:09;3.30;;;1.92;;
29908;SDS011;36247;51.952;6.146;2023-04-15T13:31:36;6.28;;;2.17;;
29908;SDS011;36247;51.952;6.146;2023-04-15T13:34:04;4.05;;;1.80;;
29908;SDS011;36247;51.952;6.146;2023-04-15T13:36:31;4.18;;;2.08;;
29908;SDS011;36247;51.952;6.146;2023-04-15T13:38:57;6.00;;;2.63;;
29908;SDS011;36247;51.952;6.146;2023-04-15T13:41:24;4.38;;;3.15;;
29908;SDS011;36247;51.952;6.146;2023-04-15T13:43:50;5.88;;;3.88;;
29908;SDS011;36247;51.952;6.146;2023-04-15T13:46:16;3.20;;;2.83;;
29908;SDS011;36247;51.952;6.146;2023-04-15T13:48:57;7.35;;;3.80;;
29908;SDS011;36247;51.952;6.146;2023-04-15T13:51:23;3.67;;;2.00;;
29908;SDS011;36247;51.952;6.146;2023-04-15T13:53:48;2.28;;;1.70;;
29908;SDS011;36247;51.952;6.146;2023-04-15T13:56:14;2.83;;;2.15;;
29908;SDS011;36247;51.952;6.146;2023-04-15T13:58:41;3.10;;;2.60;;
29908;SDS011;36247;51.952;6.146;2023-04-15T14:01:07;3.33;;;2.33;;
29908;SDS011;36247;51.952;6.146;2023-04-15T14:03:36;4.82;;;2.25;;
29908;SDS011;36247;51.952;6.146;2023-04-15T14:06:04;3.60;;;2.05;;
29908;SDS011;36247;51.952;6.146;2023-04-15T14:08:37;1.95;;;1.85;;
29908;SDS011;36247;51.952;6.146;2023-04-15T14:11:05;5.55;;;3.30;;
29908;SDS011;36247;51.952;6.146;2023-04-15T14:13:31;2.92;;;1.88;;
29908;SDS011;36247;51.952;6.146;2023-04-15T14:15:58;3.75;;;2.03;;
29908;SDS011;36247;51.952;6.146;2023-04-15T14:18:24;6.90;;;5.28;;
29908;SDS011;36247;51.952;6.146;2023-04-15T14:20:50;5.72;;;4.90;;
29908;SDS011;36247;51.952;6.146;2023-04-15T14:23:17;6.65;;;4.47;;
29908;SDS011;36247;51.952;6.146;2023-04-15T14:25:45;4.18;;;2.75;;
29908;SDS011;36247;51.952;6.146;2023-04-15T14:28:19;5.35;;;3.97;;
29908;SDS011;36247;51.952;6.146;2023-04-15T14:30:48;3.05;;;1.90;;
29908;SDS011;36247;51.952;6.146;2023-04-15T14:33:13;7.07;;;5.35;;
29908;SDS011;36247;51.952;6.146;2023-04-15T14:35:40;9.38;;;3.88;;
29908;SDS011;36247;51.952;6.146;2023-04-15T14:38:06;2.80;;;2.40;;
29908;SDS011;36247;51.952;6.146;2023-04-15T14:40:35;6.93;;;3.45;;
29908;SDS011;36247;51.952;6.146;2023-04-15T14:43:03;4.15;;;2.50;;
29908;SDS011;36247;51.952;6.146;2023-04-15T14:45:30;10.13;;;4.05;;
29908;SDS011;36247;51.952;6.146;2023-04-15T14:48:00;6.05;;;4.00;;
29908;SDS011;36247;51.952;6.146;2023-04-15T14:50:27;6.85;;;3.72;;
29908;SDS011;36247;51.952;6.146;2023-04-15T14:52:56;8.77;;;4.13;;
29908;SDS011;36247;51.952;6.146;2023-04-15T14:55:23;5.60;;;3.28;;
29908;SDS011;36247;51.952;6.146;2023-04-15T14:57:49;3.95;;;2.72;;
29908;SDS011;36247;51.952;6.146;2023-04-15T15:00:16;9.18;;;3.00;;
29908;SDS011;36247;51.952;6.146;2023-04-15T15:02:42;9.18;;;4.15;;
29908;SDS011;36247;51.952;6.146;2023-04-15T15:05:08;5.90;;;4.13;;
29908;SDS011;36247;51.952;6.146;2023-04-15T15:07:36;4.97;;;2.80;;
29908;SDS011;36247;51.952;6.146;2023-04-15T15:10:05;7.90;;;2.63;;
29908;SDS011;36247;51.952;6.146;2023-04-15T15:12:34;7.93;;;3.53;;
29908;SDS011;36247;51.952;6.146;2023-04-15T15:15:01;6.88;;;3.35;;
29908;SDS011;36247;51.952;6.146;2023-04-15T15:17:29;4.60;;;3.08;;